createdAt,value
2023-05-05T00:00:14.073Z,81.43
2023-05-05T00:02:43.391Z,82.45
2023-05-05T00:05:10.448Z,83.35
2023-05-05T00:07:37.333Z,84.50
2023-05-05T00:10:05.814Z,87.43
2023-05-05T00:12:33.616Z,87.88
2023-05-05T00:15:02.638Z,88.16
2023-05-05T00:17:30.850Z,88.77
2023-05-05T00:19:57.434Z,89.57
2023-05-05T00:22:24.075Z,90.53
2023-05-05T00:24:55.568Z,90.93
2023-05-05T00:27:23.320Z,90.68
2023-05-05T00:29:50.836Z,90.81
2023-05-05T00:32:19.546Z,91.59
2023-05-05T00:34:46.593Z,91.66
2023-05-05T00:37:16.837Z,90.86
2023-05-05T00:39:44.205Z,89.56
2023-05-05T00:42:11.575Z,89.69
2023-05-05T00:44:40.663Z,89.90
2023-05-05T00:47:16.786Z,89.68
2023-05-05T00:49:43.666Z,90.25
2023-05-05T00:52:11.703Z,90.12
2023-05-05T00:54:44.341Z,89.67
2023-05-05T00:57:11.562Z,89.22
2023-05-05T00:59:39.149Z,87.35
2023-05-05T01:02:06.321Z,85.68
2023-05-05T01:04:34.254Z,84.32
2023-05-05T01:07:52.621Z,84.49
2023-05-05T01:10:43.029Z,85.05
2023-05-05T01:13:32.849Z,84.67
2023-05-05T01:16:12.064Z,83.34
2023-05-05T01:18:52.806Z,82.43
2023-05-05T01:21:47.693Z,82.99
2023-05-05T01:24:33.111Z,81.69
2023-05-05T01:27:27.304Z,81.69
2023-05-05T01:30:32.472Z,83.13
2023-05-05T01:33:05.568Z,82.13
2023-05-05T01:35:45.879Z,81.53
2023-05-05T01:38:19.197Z,81.90
2023-05-05T01:40:52.132Z,82.51
2023-05-05T01:43:21.720Z,81.98
2023-05-05T01:45:50.664Z,81.92
2023-05-05T01:48:19.507Z,81.43
2023-05-05T01:50:48.171Z,81.54
2023-05-05T01:53:18.233Z,82.14
2023-05-05T01:55:47.179Z,82.41
2023-05-05T01:58:16.529Z,80.94
2023-05-05T02:00:44.250Z,79.93
2023-05-05T02:03:16.274Z,79.86
2023-05-05T02:05:44.745Z,79.52
2023-05-05T02:08:12.226Z,78.56
2023-05-05T02:10:45.730Z,77.97
2023-05-05T02:13:15.603Z,77.16
2023-05-05T02:15:46.405Z,78.43
2023-05-05T02:20:55.347Z,83.78
2023-05-05T02:23:22.212Z,86.18
2023-05-05T02:25:57.994Z,89.31
2023-05-05T02:28:41.906Z,92.23
2023-05-05T02:31:11.125Z,94.31
2023-05-05T02:33:39.342Z,97.02
2023-05-05T02:36:26.280Z,96.83
2023-05-05T02:38:58.332Z,98.26
2023-05-05T02:41:30.804Z,99.53
2023-05-05T02:44:00.940Z,100.00
2023-05-05T02:46:33.025Z,100.00
2023-05-05T02:49:04.447Z,100.00
2023-05-05T02:51:33.721Z,100.00
2023-05-05T02:54:01.805Z,100.00
2023-05-05T02:56:42.346Z,100.00
2023-05-05T02:59:26.682Z,100.00
2023-05-05T03:02:20.066Z,100.00
2023-05-05T03:05:21.757Z,100.00
2023-05-05T03:08:09.809Z,100.00
2023-05-05T03:10:44.244Z,100.00
2023-05-05T03:13:14.421Z,100.00
2023-05-05T03:15:46.802Z,100.00
2023-05-05T03:18:18.101Z,100.00
2023-05-05T03:20:46.485Z,100.00
2023-05-05T03:23:20.409Z,100.00
2023-05-05T03:25:48.848Z,100.00
2023-05-05T03:28:18.423Z,100.00
2023-05-05T03:30:48.980Z,100.00
2023-05-05T03:33:19.828Z,100.00
2023-05-05T03:35:50.279Z,100.00
2023-05-05T03:38:17.064Z,100.00
2023-05-05T03:40:44.846Z,100.00
2023-05-05T03:43:11.829Z,100.00
2023-05-05T03:45:46.115Z,100.00
2023-05-05T03:48:13.650Z,100.00
2023-05-05T03:50:40.669Z,100.00
2023-05-05T03:53:07.095Z,100.00
2023-05-05T03:55:37.969Z,100.00
2023-05-05T03:58:04.455Z,100.00
2023-05-05T04:00:31.413Z,100.00
2023-05-05T04:02:58.085Z,100.00
2023-05-05T04:05:25.733Z,100.00
2023-05-05T04:07:52.874Z,100.00
2023-05-05T04:10:20.644Z,100.00
2023-05-05T04:12:47.632Z,100.00
2023-05-05T04:15:14.378Z,100.00
2023-05-05T04:17:41.126Z,100.00
2023-05-05T04:20:12.514Z,100.00
2023-05-05T04:22:40.890Z,100.00
2023-05-05T04:25:07.795Z,100.00
2023-05-05T04:27:40.286Z,100.00
2023-05-05T04:30:10.257Z,100.00
2023-05-05T04:32:41.992Z,100.00
2023-05-05T04:35:11.971Z,100.00
2023-05-05T04:37:40.226Z,100.00
2023-05-05T04:40:09.845Z,100.00
2023-05-05T04:42:39.560Z,100.00
2023-05-05T04:45:09.923Z,100.00
2023-05-05T04:47:37.131Z,100.00
2023-05-05T04:50:03.997Z,100.00
2023-05-05T04:52:38.286Z,100.00
2023-05-05T04:55:12.594Z,100.00
2023-05-05T04:57:41.981Z,100.00
2023-05-05T05:00:12.278Z,100.00
2023-05-05T05:02:39.486Z,100.00
2023-05-05T05:05:08.066Z,100.00
2023-05-05T05:07:42.495Z,100.00
2023-05-05T05:10:20.593Z,100.00
2023-05-05T05:12:57.785Z,100.00
2023-05-05T05:15:30.338Z,100.00
2023-05-05T05:17:57.657Z,100.00
2023-05-05T05:20:25.816Z,100.00
2023-05-05T05:22:52.702Z,100.00
2023-05-05T05:25:21.174Z,100.00
2023-05-05T05:30:39.010Z,100.00
2023-05-05T05:33:07.735Z,100.00
2023-05-05T05:35:35.167Z,100.00
2023-05-05T05:38:05.076Z,98.45
2023-05-05T05:40:49.880Z,99.58
2023-05-05T05:43:18.597Z,100.00
2023-05-05T05:45:48.307Z,97.28
2023-05-05T05:51:17.285Z,91.07
2023-05-05T05:53:49.913Z,92.03
2023-05-05T05:59:01.916Z,89.77
2023-05-05T06:01:33.846Z,94.21
2023-05-05T06:04:02.479Z,89.00
2023-05-05T06:06:29.441Z,90.41
2023-05-05T06:09:05.158Z,85.56
2023-05-05T06:11:33.272Z,85.09
2023-05-05T06:14:00.547Z,84.67
2023-05-05T06:16:27.556Z,82.77
2023-05-05T06:18:57.579Z,81.20
2023-05-05T06:21:37.961Z,80.15
2023-05-05T06:24:07.193Z,80.68
2023-05-05T06:26:34.184Z,79.85
2023-05-05T06:29:01.579Z,78.31
2023-05-05T06:31:28.745Z,77.96
2023-05-05T06:33:58.453Z,75.76
2023-05-05T06:36:29.824Z,74.14
2023-05-05T06:38:59.219Z,72.88
2023-05-05T06:41:28.084Z,70.12
2023-05-05T06:43:56.301Z,69.94
2023-05-05T06:46:23.542Z,68.83
2023-05-05T06:48:52.079Z,65.07
2023-05-05T06:51:26.598Z,63.93
2023-05-05T06:53:55.499Z,62.07
2023-05-05T06:56:28.776Z,62.76
2023-05-05T06:59:16.646Z,62.38
2023-05-05T07:04:42.612Z,58.47
2023-05-05T07:07:10.317Z,57.40
2023-05-05T07:09:48.308Z,60.38
2023-05-05T07:12:18.832Z,59.25
2023-05-05T07:14:52.806Z,60.10
2023-05-05T07:17:24.146Z,60.50
2023-05-05T07:25:33.599Z,57.75
2023-05-05T07:28:30.358Z,56.52
2023-05-05T07:31:02.518Z,60.19
2023-05-05T07:33:31.191Z,58.57
2023-05-05T07:38:58.951Z,57.01
2023-05-05T07:44:18.522Z,55.48
2023-05-05T07:46:48.081Z,56.11
2023-05-05T07:49:20.019Z,56.52
2023-05-05T07:51:56.659Z,57.16
2023-05-05T07:57:26.166Z,56.05
2023-05-05T07:59:53.486Z,55.91
2023-05-05T08:02:26.668Z,56.04
2023-05-05T08:04:58.076Z,55.26
2023-05-05T08:07:29.377Z,53.16
2023-05-05T08:10:07.841Z,55.02
2023-05-05T08:12:40.634Z,56.07
2023-05-05T08:15:14.221Z,58.51
2023-05-05T08:17:51.834Z,61.29
2023-05-05T08:23:13.779Z,63.46
2023-05-05T08:25:47.782Z,64.34
2023-05-05T08:28:17.003Z,66.70
2023-05-05T08:31:10.077Z,69.07
2023-05-05T08:39:17.370Z,65.24
2023-05-05T08:41:51.122Z,64.24
2023-05-05T08:44:53.775Z,61.81
2023-05-05T08:47:39.048Z,61.38
2023-05-05T08:50:18.818Z,61.86
2023-05-05T08:52:56.357Z,61.74
2023-05-05T08:55:33.141Z,60.12
2023-05-05T08:58:08.600Z,59.82
2023-05-05T09:00:37.745Z,60.18
2023-05-05T09:03:15.028Z,60.25
2023-05-05T09:05:47.713Z,59.54
2023-05-05T09:08:19.895Z,60.28
2023-05-05T09:10:58.755Z,60.13
2023-05-05T09:13:27.191Z,59.77
2023-05-05T09:16:06.534Z,58.24
2023-05-05T09:18:42.598Z,57.99
2023-05-05T09:21:36.345Z,57.12
2023-05-05T09:24:24.145Z,57.12
2023-05-05T09:26:55.697Z,56.53
2023-05-05T09:29:27.734Z,56.98
2023-05-05T09:32:09.958Z,57.33
2023-05-05T09:34:40.643Z,58.18
2023-05-05T09:40:36.404Z,59.77
2023-05-05T09:43:11.616Z,59.94
2023-05-05T09:45:43.757Z,59.43
2023-05-05T09:48:28.623Z,58.02
2023-05-05T09:50:57.841Z,58.67
2023-05-05T09:56:11.190Z,56.68
2023-05-05T09:58:38.512Z,55.91
2023-05-05T10:01:05.437Z,54.63
2023-05-05T10:03:35.293Z,54.00
2023-05-05T10:06:05.425Z,53.74
2023-05-05T10:08:34.762Z,53.11
2023-05-05T10:11:07.489Z,52.56
2023-05-05T10:13:51.952Z,51.24
2023-05-05T10:16:30.813Z,50.29
2023-05-05T10:19:05.260Z,49.88
2023-05-05T10:24:46.253Z,45.41
2023-05-05T10:27:31.089Z,43.75
2023-05-05T10:30:15.557Z,43.70
2023-05-05T10:36:00.377Z,44.96
2023-05-05T10:38:45.218Z,45.57
2023-05-05T10:41:16.466Z,44.21
2023-05-05T10:43:53.509Z,45.48
2023-05-05T10:46:29.156Z,44.61
2023-05-05T10:49:39.978Z,42.47
2023-05-05T10:52:23.501Z,42.60
2023-05-05T10:55:16.882Z,42.16
2023-05-05T11:03:44.930Z,41.42
2023-05-05T11:09:00.258Z,37.33
2023-05-05T11:11:48.534Z,36.93
2023-05-05T11:14:26.699Z,36.99
2023-05-05T11:17:09.911Z,37.77
2023-05-05T11:19:57.060Z,37.31
2023-05-05T11:22:24.452Z,38.02
2023-05-05T11:24:53.541Z,38.44
2023-05-05T11:27:23.589Z,39.61
2023-05-05T11:36:37.567Z,33.37
2023-05-05T11:39:24.664Z,33.93
2023-05-05T11:45:28.392Z,34.56
2023-05-05T11:48:29.561Z,34.84
2023-05-05T12:00:13.074Z,33.77
2023-05-05T12:02:47.129Z,33.39
2023-05-05T12:05:28.443Z,34.60
2023-05-05T12:08:02.339Z,35.36
2023-05-05T12:10:29.591Z,32.57
2023-05-05T12:12:58.692Z,33.88
2023-05-05T12:15:34.535Z,34.48
2023-05-05T12:18:22.461Z,34.43
2023-05-05T12:20:52.398Z,34.65
2023-05-05T12:23:23.962Z,35.17
2023-05-05T12:25:51.727Z,35.42
2023-05-05T12:28:18.520Z,34.97
2023-05-05T12:33:44.306Z,34.00
2023-05-05T12:36:16.992Z,34.66
2023-05-05T12:38:46.358Z,33.64
2023-05-05T12:41:24.826Z,34.07
2023-05-05T12:43:56.766Z,33.87
2023-05-05T12:46:26.758Z,33.15
2023-05-05T12:49:08.238Z,32.99
2023-05-05T12:51:43.804Z,33.39
2023-05-05T12:54:24.909Z,33.63
2023-05-05T12:56:59.568Z,33.80
2023-05-05T12:59:35.350Z,34.83
2023-05-05T13:02:15.397Z,35.03
2023-05-05T13:04:56.537Z,34.94
2023-05-05T13:14:47.213Z,32.87
2023-05-05T13:17:29.683Z,32.54
2023-05-05T13:22:53.122Z,33.17
2023-05-05T13:25:23.160Z,33.60
2023-05-05T13:33:19.982Z,32.34
2023-05-05T13:38:45.806Z,33.49
2023-05-05T13:41:16.859Z,32.80
2023-05-05T13:43:48.313Z,32.88
2023-05-05T13:46:19.965Z,33.91
2023-05-05T13:48:56.040Z,33.78
2023-05-05T13:51:49.973Z,34.28
2023-05-05T14:10:22.679Z,34.02
2023-05-05T14:12:55.030Z,33.34
2023-05-05T14:21:09.090Z,34.19
2023-05-05T14:26:30.694Z,33.49
2023-05-05T14:29:04.552Z,33.45
2023-05-05T14:34:22.507Z,34.59
2023-05-05T14:36:50.075Z,35.16
2023-05-05T14:39:20.746Z,35.00
2023-05-05T14:41:51.866Z,36.03
2023-05-05T14:44:22.502Z,36.48
2023-05-05T14:49:44.296Z,36.30
2023-05-05T14:52:11.088Z,36.05
2023-05-05T14:54:40.373Z,36.21
2023-05-05T14:57:15.645Z,36.75
2023-05-05T14:59:49.731Z,36.80
2023-05-05T15:02:16.928Z,36.70
2023-05-05T15:04:44.170Z,37.49
2023-05-05T15:07:13.610Z,37.61
2023-05-05T15:09:44.816Z,38.08
2023-05-05T15:12:29.674Z,38.45
2023-05-05T15:14:57.071Z,39.38
2023-05-05T15:17:25.327Z,39.81
2023-05-05T15:19:52.120Z,39.52
2023-05-05T15:22:19.663Z,39.11
2023-05-05T15:24:46.890Z,39.23
2023-05-05T15:27:19.586Z,41.36
2023-05-05T15:29:50.793Z,46.26
2023-05-05T15:32:17.937Z,49.70
2023-05-05T15:34:50.183Z,55.60
2023-05-05T15:37:19.920Z,54.67
2023-05-05T15:39:47.139Z,58.70
2023-05-05T15:42:17.918Z,61.17
2023-05-05T15:44:45.242Z,66.95
2023-05-05T15:47:18.426Z,69.23
2023-05-05T15:49:52.218Z,70.25
2023-05-05T15:52:22.443Z,72.37
2023-05-05T15:54:49.459Z,72.73
2023-05-05T16:02:43.043Z,67.26
2023-05-05T16:05:10.887Z,69.79
2023-05-05T16:08:10.823Z,70.94
2023-05-05T16:10:38.196Z,70.61
2023-05-05T16:13:08.524Z,69.04
2023-05-05T16:15:41.700Z,70.94
2023-05-05T16:18:20.542Z,71.87
2023-05-05T16:20:47.560Z,72.98
2023-05-05T16:23:18.354Z,72.93
2023-05-05T16:25:48.932Z,73.30
2023-05-05T16:28:19.227Z,74.49
2023-05-05T16:30:46.682Z,75.58
2023-05-05T16:33:14.358Z,76.33
2023-05-05T16:36:10.784Z,77.11
2023-05-05T16:39:00.195Z,77.39
2023-05-05T16:41:47.182Z,78.12
2023-05-05T16:44:14.872Z,79.04
2023-05-05T16:46:49.759Z,79.80
2023-05-05T16:49:34.326Z,80.09
2023-05-05T16:52:02.289Z,80.53
2023-05-05T16:54:36.936Z,80.50
2023-05-05T16:57:06.079Z,81.72
2023-05-05T16:59:35.262Z,83.23
2023-05-05T17:02:06.047Z,84.86
2023-05-05T17:04:36.316Z,89.29
2023-05-05T17:07:06.882Z,89.21
2023-05-05T17:13:02.132Z,91.10
2023-05-05T17:15:33.470Z,92.97
2023-05-05T17:20:50.813Z,92.95
2023-05-05T17:31:58.212Z,95.87
2023-05-05T17:34:46.135Z,95.79
2023-05-05T17:40:06.060Z,92.98
2023-05-05T17:45:23.185Z,93.66
2023-05-05T17:48:07.338Z,92.54
2023-05-05T17:50:43.505Z,92.05
2023-05-05T17:53:14.414Z,91.85
2023-05-05T17:55:49.657Z,93.03
2023-05-05T17:58:32.460Z,91.79
2023-05-05T18:01:26.316Z,93.06
2023-05-05T18:03:57.083Z,92.91
2023-05-05T18:06:30.423Z,95.40
2023-05-05T18:09:00.260Z,91.06
2023-05-05T18:11:55.285Z,90.75
2023-05-05T18:14:26.060Z,89.05
2023-05-05T18:17:06.944Z,87.97
2023-05-05T18:19:35.015Z,87.88
2023-05-05T18:22:16.387Z,87.83
2023-05-05T18:24:46.773Z,88.09
2023-05-05T18:27:14.461Z,88.23
2023-05-05T18:29:43.890Z,87.47
2023-05-05T18:38:23.209Z,86.33
2023-05-05T18:40:53.361Z,86.67
2023-05-05T18:43:21.119Z,87.07
2023-05-05T18:58:37.658Z,87.93
2023-05-05T19:01:15.265Z,88.36
2023-05-05T19:10:27.356Z,88.77
2023-05-05T19:12:59.930Z,88.64
2023-05-05T19:15:34.194Z,88.83
2023-05-05T19:18:04.665Z,89.46
2023-05-05T19:20:45.762Z,89.83
2023-05-05T19:23:23.567Z,88.95
2023-05-05T19:25:56.582Z,89.44
2023-05-05T19:31:11.828Z,87.81
2023-05-05T19:33:47.307Z,87.46
2023-05-05T19:36:23.153Z,87.47
2023-05-05T19:38:55.489Z,87.89
2023-05-05T19:41:31.506Z,88.91
2023-05-05T19:44:02.004Z,89.45
2023-05-05T19:46:28.949Z,90.66
2023-05-05T19:48:58.443Z,90.97
2023-05-05T19:51:30.314Z,91.93
2023-05-05T19:53:57.440Z,92.82
2023-05-05T19:59:18.640Z,94.90
2023-05-05T20:01:49.992Z,95.43
2023-05-05T20:04:24.047Z,91.94
2023-05-05T20:07:00.260Z,92.49
2023-05-05T20:09:35.523Z,92.92
2023-05-05T20:12:06.172Z,92.51
2023-05-05T20:14:33.211Z,93.03
2023-05-05T20:17:04.239Z,93.50
2023-05-05T20:19:32.305Z,92.42
2023-05-05T20:22:07.867Z,92.51
2023-05-05T20:27:45.929Z,95.58
2023-05-05T20:30:15.371Z,94.42
2023-05-05T20:32:44.858Z,94.58
2023-05-05T20:35:13.092Z,95.33
2023-05-05T20:37:43.758Z,95.77
2023-05-05T20:42:54.693Z,96.99
2023-05-05T20:45:29.142Z,97.62
2023-05-05T20:48:05.346Z,98.50
2023-05-05T20:50:33.873Z,97.64
2023-05-05T20:53:03.336Z,97.64
2023-05-05T20:55:32.406Z,98.05
2023-05-05T20:58:11.249Z,99.61
2023-05-05T21:00:41.531Z,99.35
2023-05-05T21:03:12.734Z,100.00
2023-05-05T21:05:43.605Z,100.00
2023-05-05T21:08:21.750Z,100.00
2023-05-05T21:10:51.192Z,100.00
2023-05-05T21:13:29.482Z,100.00
2023-05-05T21:15:56.964Z,100.00
2023-05-05T21:18:34.598Z,100.00
2023-05-05T21:21:08.645Z,99.74
2023-05-05T21:23:38.403Z,98.41
2023-05-05T21:26:09.071Z,98.47
2023-05-05T21:28:39.105Z,97.07
2023-05-05T21:31:21.383Z,96.79
2023-05-05T21:36:34.489Z,97.32
2023-05-05T21:41:49.829Z,97.51
2023-05-05T21:44:20.681Z,96.75
2023-05-05T21:46:51.020Z,97.30
2023-05-05T21:52:02.470Z,97.73
2023-05-05T21:54:30.509Z,98.16
2023-05-05T21:56:58.482Z,98.75
2023-05-05T21:59:25.859Z,98.94
2023-05-05T22:01:58.644Z,99.27
2023-05-05T22:04:28.974Z,98.93
2023-05-05T22:06:56.607Z,99.48
2023-05-05T22:09:23.783Z,99.53
2023-05-05T22:14:44.403Z,100.00
2023-05-05T22:20:08.545Z,100.00
2023-05-05T22:22:36.134Z,100.00
2023-05-05T22:25:18.720Z,100.00
2023-05-05T22:27:50.517Z,100.00
2023-05-05T22:30:18.957Z,100.00
2023-05-05T22:32:49.981Z,100.00
2023-05-05T22:35:19.166Z,100.00
2023-05-05T22:37:49.016Z,100.00
2023-05-05T22:40:19.226Z,100.00
2023-05-05T22:42:54.894Z,100.00
2023-05-05T22:45:23.391Z,100.00
2023-05-05T22:50:34.407Z,100.00
2023-05-05T22:53:11.602Z,100.00
2023-05-05T22:55:43.186Z,100.00
2023-05-05T22:58:18.194Z,100.00
2023-05-05T23:00:47.357Z,100.00
2023-05-05T23:03:18.852Z,100.00
2023-05-05T23:05:48.037Z,100.00
2023-05-05T23:08:26.941Z,100.00
2023-05-05T23:10:54.567Z,100.00
2023-05-05T23:16:07.467Z,100.00
2023-05-05T23:18:36.429Z,100.00
2023-05-05T23:21:11.291Z,100.00
2023-05-05T23:23:43.388Z,100.00
2023-05-05T23:26:14.323Z,100.00
2023-05-05T23:28:46.483Z,100.00
2023-05-05T23:31:14.257Z,100.00
2023-05-05T23:36:37.220Z,100.00
2023-05-05T23:39:07.859Z,100.00
2023-05-05T23:41:35.740Z,100.00
2023-05-05T23:44:07.096Z,100.00
2023-05-05T23:46:34.467Z,100.00
2023-05-05T23:49:07.651Z,100.00
2023-05-05T23:51:37.186Z,100.00
2023-05-05T23:54:06.227Z,100.00
2023-05-05T23:56:35.943Z,100.00
2023-05-05T23:59:03.699Z,100.00
